Time;durP1;ratioP1;P1;durP2;ratioP2;P2;SDS_P1;SDS_P2;PMS_P1;PMS_P2;Temp;Humidity;BMP_temperature;BMP_pressure;BME280_temperature;BME280_humidity;BME280_pressure;Samples;Min_cycle;Max_cycle;Signal;HPM_P1;HPM_P2
2024/02/01 00:01:02;;;;;;;12.30;5.05;;;;;;;8.34;100.00;102499.44;6082595;19;20010;-69
2024/02/01 00:03:10;;;;;;;8.52;4.28;;;;;;;8.36;100.00;102495.94;6081651;19;20335;-71
2024/02/01 00:05:13;;;;;;;18.75;5.90;;;;;;;8.32;100.00;102493.34;6082113;19;20015;-71
2024/02/01 00:07:18;;;;;;;17.05;6.20;;;;;;;8.34;100.00;102504.69;6084981;19;20078;-71
2024/02/01 00:09:24;;;;;;;12.65;4.82;;;;;;;8.35;100.00;102501.22;6084236;19;20015;-70
2024/02/01 00:11:30;;;;;;;17.80;6.40;;;;;;;8.31;100.00;102495.09;6080012;19;20014;-70
2024/02/01 00:13:35;;;;;;;11.23;5.45;;;;;;;8.36;100.00;102501.19;6081597;19;20049;-70
2024/02/01 00:15:40;;;;;;;25.02;5.93;;;;;;;8.37;100.00;102502.06;6082918;19;20478;-71
2024/02/01 00:17:46;;;;;;;16.75;5.25;;;;;;;8.41;100.00;102508.19;6082320;19;20039;-69
2024/02/01 00:19:53;;;;;;;17.20;6.70;;;;;;;8.39;100.00;102497.72;6084133;19;20434;-69
2024/02/01 00:21:59;;;;;;;18.50;6.13;;;;;;;8.40;100.00;102501.19;6085527;19;20002;-68
2024/02/01 00:24:04;;;;;;;13.63;5.78;;;;;;;8.41;100.00;102500.34;6081938;19;20064;-69
2024/02/01 00:26:09;;;;;;;12.05;4.88;;;;;;;8.42;100.00;102507.31;6082340;19;20090;-69
2024/02/01 00:28:14;;;;;;;21.05;5.72;;;;;;;8.40;100.00;102493.34;6083517;19;20362;-71
2024/02/01 00:30:20;;;;;;;21.75;5.75;;;;;;;8.48;100.00;102496.81;6081535;19;20634;-71
2024/02/01 00:32:26;;;;;;;17.70;6.20;;;;;;;8.46;100.00;102498.56;6081153;19;20014;-71
2024/02/01 00:34:32;;;;;;;12.38;5.75;;;;;;;8.48;100.00;102502.06;6081691;19;19998;-70
2024/02/01 00:36:40;;;;;;;21.92;7.05;;;;;;;8.42;100.00;102502.94;6079533;19;20022;-71
2024/02/01 00:38:45;;;;;;;18.80;5.72;;;;;;;8.45;100.00;102502.06;6080449;19;20017;-71
2024/02/01 00:40:50;;;;;;;14.38;6.10;;;;;;;8.49;100.00;102493.31;6079775;19;20031;-71
2024/02/01 00:42:52;;;;;;;15.65;6.75;;;;;;;8.45;100.00;102500.31;6081828;19;20006;-70
2024/02/01 00:44:57;;;;;;;14.70;6.05;;;;;;;8.47;100.00;102500.31;6082836;19;20065;-70
2024/02/01 00:47:02;;;;;;;14.73;5.70;;;;;;;8.43;100.00;102498.59;6083800;19;20002;-70
2024/02/01 00:49:08;;;;;;;20.45;6.57;;;;;;;8.42;100.00;102486.34;6086890;19;20043;-70
2024/02/01 00:51:13;;;;;;;14.60;5.25;;;;;;;8.43;100.00;102488.13;6085871;19;20034;-70
2024/02/01 00:53:22;;;;;;;17.98;5.97;;;;;;;8.42;100.00;102494.22;6082689;19;20463;-70
2024/02/01 00:55:27;;;;;;;14.90;7.00;;;;;;;8.45;100.00;102496.81;6085366;19;20148;-70
2024/02/01 00:57:32;;;;;;;22.58;6.93;;;;;;;8.40;100.00;102495.97;6085817;19;20017;-70
2024/02/01 00:59:35;;;;;;;18.25;7.43;;;;;;;8.48;100.00;102494.19;6086837;19;20010;-70
2024/02/01 01:01:40;;;;;;;;;;;;;;;8.48;100.00;102508.16;6088122;19;20051;-70
2024/02/01 01:03:44;;;;;;;15.15;6.65;;;;;;;8.43;100.00;102503.84;6091669;19;20279;-71
2024/02/01 01:05:49;;;;;;;17.30;8.05;;;;;;;8.45;100.00;102512.53;6085966;19;20028;-71
2024/02/01 01:07:54;;;;;;;21.42;7.80;;;;;;;8.48;100.00;102502.06;6084235;19;20007;-71
2024/02/01 01:09:59;;;;;;;20.70;6.90;;;;;;;8.45;100.00;102502.06;6086309;19;20014;-71
2024/02/01 01:12:05;;;;;;;17.20;6.40;;;;;;;8.46;100.00;102509.91;6082516;19;20003;-69
2024/02/01 01:14:07;;;;;;;28.05;7.90;;;;;;;8.47;100.00;102508.16;6085284;19;20021;-69
2024/02/01 01:16:12;;;;;;;17.30;6.28;;;;;;;8.50;100.00;102511.63;6086613;19;20052;-70
2024/02/01 01:18:17;;;;;;;16.90;6.25;;;;;;;8.50;100.00;102510.75;6085310;19;20011;-69
2024/02/01 01:20:22;;;;;;;20.27;6.70;;;;;;;8.51;100.00;102504.66;6087963;19;20002;-69
2024/02/01 01:22:27;;;;;;;18.98;6.97;;;;;;;8.57;100.00;102523.81;6088914;19;20007;-69
2024/02/01 01:24:33;;;;;;;17.00;5.63;;;;;;;8.58;100.00;102522.06;6087425;19;20995;-70
2024/02/01 01:26:41;;;;;;;20.20;6.78;;;;;;;8.65;100.00;102523.78;6086377;19;20083;-70
2024/02/01 01:28:46;;;;;;;16.83;6.22;;;;;;;8.67;100.00;102519.41;6085125;19;20081;-69
2024/02/01 01:30:52;;;;;;;15.82;5.45;;;;;;;8.68;100.00;102531.63;6087237;19;20019;-69
2024/02/01 01:32:56;;;;;;;22.58;6.15;;;;;;;8.66;100.00;102532.50;6086050;19;20003;-70
2024/02/01 01:35:02;;;;;;;21.00;5.70;;;;;;;8.68;100.00;102541.25;6089447;19;20492;-70
2024/02/01 01:37:08;;;;;;;21.45;5.93;;;;;;;8.69;100.00;102543.88;6083829;19;20538;-69
2024/02/01 01:39:12;;;;;;;17.05;6.25;;;;;;;8.66;100.00;102545.63;6084275;19;20014;-69
2024/02/01 01:41:18;;;;;;;21.75;5.50;;;;;;;8.64;100.00;102547.41;6086053;19;20425;-70
2024/02/01 01:43:25;;;;;;;26.77;7.30;;;;;;;8.65;100.00;102550.00;6086843;19;20010;-70
2024/02/01 01:45:30;;;;;;;24.70;5.63;;;;;;;8.69;100.00;102543.88;6088637;19;20018;-71
2024/02/01 01:47:35;;;;;;;21.88;6.90;;;;;;;8.64;100.00;102553.50;6085986;19;20150;-71
2024/02/01 01:49:40;;;;;;;19.92;6.22;;;;;;;8.67;100.00;102553.47;6085647;19;20018;-70
2024/02/01 01:51:46;;;;;;;14.57;6.05;;;;;;;8.63;100.00;102549.13;6083839;19;20047;-70
2024/02/01 01:53:50;;;;;;;14.90;6.57;;;;;;;8.63;100.00;102556.13;6083150;19;20014;-69
2024/02/01 01:55:55;;;;;;;17.80;6.68;;;;;;;8.62;100.00;102549.16;6086668;19;20427;-69
2024/02/01 01:58:01;;;;;;;20.23;6.28;;;;;;;8.59;100.00;102557.91;6084024;19;20011;-69
2024/02/01 02:00:11;;;;;;;12.55;4.82;;;;;;;8.57;100.00;102560.50;6087705;19;20027;-69
2024/02/01 02:02:14;;;;;;;21.90;5.00;;;;;;;8.51;100.00;102550.06;6086468;19;20020;-69
2024/02/01 02:04:19;;;;;;;;;;;;;;;8.57;100.00;102559.66;6084573;19;20478;-68
2024/02/01 02:06:21;;;;;;;15.25;4.90;;;;;;;8.58;100.00;102564.00;6085073;19;19922;-69
2024/02/01 02:08:27;;;;;;;14.90;4.93;;;;;;;8.57;100.00;102573.63;6086204;19;20009;-69
2024/02/01 02:10:32;;;;;;;17.55;4.90;;;;;;;8.59;100.00;102565.75;6088208;19;20014;-68
2024/02/01 02:12:40;;;;;;;15.48;5.22;;;;;;;8.57;100.00;102576.22;6085740;19;20037;-69
2024/02/01 02:14:45;;;;;;;16.05;4.88;;;;;;;8.58;100.00;102571.84;6085442;19;20039;-69
2024/02/01 02:16:53;;;;;;;27.58;6.50;;;;;;;8.59;100.00;102578.00;6083915;19;20013;-69
2024/02/01 02:19:00;;;;;;;16.05;5.80;;;;;;;8.59;100.00;102586.72;6085229;19;20026;-69
2024/02/01 02:21:09;;;;;;;13.45;5.50;;;;;;;8.56;100.00;102584.13;6084971;19;20357;-69
2024/02/01 02:23:17;;;;;;;16.02;6.00;;;;;;;8.54;100.00;102596.34;6080664;19;20003;-68
2024/02/01 02:25:22;;;;;;;16.90;6.75;;;;;;;8.45;100.00;102593.75;6081099;19;20459;-69
2024/02/01 02:27:27;;;;;;;12.00;5.75;;;;;;;8.40;100.00;102595.50;6085915;19;20469;-69
2024/02/01 02:29:32;;;;;;;17.00;5.18;;;;;;;8.37;100.00;102588.50;6085973;19;20019;-69
2024/02/01 02:31:38;;;;;;;16.98;4.72;;;;;;;8.30;100.00;102594.66;6085139;19;20086;-70
2024/02/01 02:33:43;;;;;;;17.00;5.03;;;;;;;8.17;100.00;102598.19;6081120;19;20014;-70
2024/02/01 02:35:46;;;;;;;11.90;3.95;;;;;;;8.08;100.00;102597.31;6085632;19;20512;-71
2024/02/01 02:37:52;;;;;;;18.40;4.40;;;;;;;8.04;100.00;102607.78;6086670;19;20002;-68
2024/02/01 02:40:00;;;;;;;11.93;4.65;;;;;;;7.91;100.00;102605.19;6084589;19;20027;-70
2024/02/01 02:42:06;;;;;;;16.25;3.30;;;;;;;7.79;100.00;102604.31;6083779;19;20014;-71
2024/02/01 02:44:13;;;;;;;16.10;4.18;;;;;;;7.67;100.00;102611.31;6084065;19;20010;-70
2024/02/01 02:46:19;;;;;;;16.63;4.10;;;;;;;7.58;100.00;102620.91;6082186;19;20007;-69
2024/02/01 02:48:24;;;;;;;8.63;2.85;;;;;;;7.50;100.00;102622.63;6084136;19;20081;-70
2024/02/01 02:50:31;;;;;;;16.38;4.25;;;;;;;7.41;100.00;102632.22;6084013;19;20006;-70
2024/02/01 02:52:40;;;;;;;24.52;4.53;;;;;;;7.32;100.00;102627.00;6078497;19;20361;-69
2024/02/01 02:54:45;;;;;;;14.82;4.18;;;;;;;7.24;100.00;102640.03;6082288;19;20021;-69
2024/02/01 02:56:53;;;;;;;12.10;2.80;;;;;;;7.18;100.00;102636.53;6087475;19;20014;-69
2024/02/01 02:58:58;;;;;;;12.38;3.63;;;;;;;7.12;100.00;102641.75;6083845;19;20003;-70
2024/02/01 03:01:05;;;;;;;17.27;3.78;;;;;;;7.09;100.00;102645.22;6085930;19;20010;-70
2024/02/01 03:03:10;;;;;;;13.85;2.88;;;;;;;7.04;100.00;102649.56;6084426;19;20011;-70
2024/02/01 03:05:15;;;;;;;33.63;3.92;;;;;;;7.02;100.00;102651.28;6079509;19;20010;-69
2024/02/01 03:07:20;;;;;;;8.40;3.40;;;;;;;7.04;100.00;102654.78;6080052;19;20365;-69
2024/02/01 03:09:26;;;;;;;11.95;2.92;;;;;;;7.00;100.00;102663.47;6081381;19;20007;-70
2024/02/01 03:11:33;;;;;;;19.55;3.85;;;;;;;6.93;100.00;102665.22;6081502;19;20028;-69
2024/02/01 03:13:41;;;;;;;9.35;3.28;;;;;;;6.91;100.00;102658.25;6083813;19;20233;-69
2024/02/01 03:15:44;;;;;;;23.23;3.45;;;;;;;6.86;100.00;102658.22;6083269;19;20424;-71
2024/02/01 03:17:51;;;;;;;15.98;4.55;;;;;;;6.77;100.00;102659.06;6085735;19;20051;-69
2024/02/01 03:19:57;;;;;;;8.57;3.50;;;;;;;6.72;100.00;102663.38;6082771;19;20045;-69
2024/02/01 03:21:59;;;;;;;14.98;3.47;;;;;;;6.68;100.00;102668.56;6084777;19;20429;-70
2024/02/01 03:24:04;;;;;;;9.80;3.83;;;;;;;6.60;100.00;102679.84;6082657;19;20356;-69
2024/02/01 03:26:10;;;;;;;10.93;2.67;;;;;;;6.54;100.00;102665.91;6083215;19;20472;-69
2024/02/01 03:28:15;;;;;;;13.05;2.58;;;;;;;6.51;100.00;102681.56;6083936;19;20002;-69
2024/02/01 03:30:21;;;;;;;15.02;3.67;;;;;;;6.41;100.00;102688.44;6084601;19;20010;-70
2024/02/01 03:32:29;;;;;;;13.35;2.60;;;;;;;6.34;100.00;102684.91;6081151;19;20003;-69
2024/02/01 03:34:36;;;;;;;11.40;2.65;;;;;;;6.28;100.00;102694.47;6082084;19;20340;-69
2024/02/01 03:36:41;;;;;;;17.38;3.20;;;;;;;6.21;100.00;102690.03;6083495;19;20038;-69
2024/02/01 03:38:47;;;;;;;8.77;3.00;;;;;;;6.18;100.00;102697.84;6082045;19;20006;-69
2024/02/01 03:40:52;;;;;;;13.88;3.05;;;;;;;6.05;100.00;102700.34;6083416;19;20114;-68
2024/02/01 03:42:56;;;;;;;18.70;3.42;;;;;;;5.99;100.00;102695.09;6082270;19;20039;-68
2024/02/01 03:45:04;;;;;;;11.60;3.28;;;;;;;5.89;100.00;102703.66;6082666;19;20016;-69
2024/02/01 03:47:12;;;;;;;13.68;2.80;;;;;;;5.78;100.00;102710.53;6083596;19;20108;-71
2024/02/01 03:49:17;;;;;;;11.27;2.50;;;;;;;5.75;100.00;102707.91;6078871;19;20010;-70
2024/02/01 03:51:23;;;;;;;8.15;2.17;;;;;;;5.66;100.00;102712.19;6082345;19;20007;-67
2024/02/01 03:53:29;;;;;;;10.50;2.38;;;;;;;5.66;100.00;102726.94;6077100;19;20013;-70
2024/02/01 03:55:31;;;;;;;15.07;3.78;;;;;;;5.54;100.00;102725.06;6080659;19;20007;-69
2024/02/01 03:57:39;;;;;;;18.73;2.83;;;;;;;5.49;100.00;102719.81;6081589;19;20011;-68
2024/02/01 03:59:47;;;;;;;13.00;3.40;;;;;;;5.43;100.00;102731.91;6081328;19;20023;-71
2024/02/01 04:01:52;;;;;;;8.18;2.10;;;;;;;5.35;100.00;102730.97;6080249;19;20004;-68
2024/02/01 04:04:00;;;;;;;9.65;2.72;;;;;;;5.33;100.00;102741.34;6082299;19;20006;-69
2024/02/01 04:06:05;;;;;;;11.73;2.53;;;;;;;5.24;100.00;102743.88;6081486;19;20443;-71
2024/02/01 04:08:08;;;;;;;10.15;2.60;;;;;;;5.25;100.00;102745.59;6080075;19;20019;-71
2024/02/01 04:10:14;;;;;;;9.68;2.40;;;;;;;5.18;100.00;102742.03;6080805;19;20070;-71
2024/02/01 04:12:19;;;;;;;12.45;3.60;;;;;;;5.13;100.00;102740.22;6083732;19;20028;-67
2024/02/01 04:14:24;;;;;;;10.93;2.47;;;;;;;5.07;100.00;102754.06;6080888;19;20046;-69
2024/02/01 04:16:27;;;;;;;10.43;2.50;;;;;;;5.06;100.00;102755.78;6080503;19;20047;-67
2024/02/01 04:18:32;;;;;;;6.43;2.53;;;;;;;4.93;100.00;102761.69;6083810;19;20081;-68
2024/02/01 04:20:41;;;;;;;11.13;2.17;;;;;;;4.88;100.00;102763.38;6087438;19;20071;-70
2024/02/01 04:22:46;;;;;;;11.60;3.25;;;;;;;4.84;100.00;102769.38;6088681;19;20031;-69
2024/02/01 04:24:51;;;;;;;12.30;2.42;;;;;;;4.76;100.00;102768.38;6088375;19;21566;-68
2024/02/01 04:26:53;;;;;;;20.98;2.72;;;;;;;4.70;100.00;102779.59;6084448;19;20030;-68
2024/02/01 04:28:58;;;;;;;12.13;3.35;;;;;;;4.67;100.00;102782.16;6086867;19;20007;-67
2024/02/01 04:31:04;;;;;;;11.60;3.17;;;;;;;4.59;100.00;102799.41;6087361;19;20006;-70
2024/02/01 04:33:09;;;;;;;15.23;2.65;;;;;;;4.53;100.00;102801.88;6086295;19;20116;-68
2024/02/01 04:35:14;;;;;;;10.32;2.13;;;;;;;4.48;100.00;102806.16;6086029;19;20245;-69
2024/02/01 04:37:22;;;;;;;13.32;2.83;;;;;;;4.50;100.00;102815.75;6086095;19;20024;-68
2024/02/01 04:39:27;;;;;;;17.83;3.17;;;;;;;4.55;100.00;102810.59;6086399;19;20014;-68
2024/02/01 04:41:34;;;;;;;9.35;1.85;;;;;;;4.51;100.00;102808.81;6085387;19;20003;-69
2024/02/01 04:43:40;;;;;;;5.72;2.53;;;;;;;4.49;100.00;102797.50;6085469;19;20028;-69
2024/02/01 04:45:45;;;;;;;11.88;2.60;;;;;;;4.47;100.00;102799.19;6085027;19;20014;-68
2024/02/01 04:47:48;;;;;;;11.23;2.05;;;;;;;4.46;100.00;102805.25;6085935;19;20018;-68
2024/02/01 04:49:53;;;;;;;4.05;1.95;;;;;;;4.41;100.00;102810.38;6087064;19;20544;-68
2024/02/01 04:52:00;;;;;;;11.85;3.45;;;;;;;4.44;100.00;102819.97;6082856;19;20003;-68
2024/02/01 04:54:09;;;;;;;9.05;2.30;;;;;;;4.42;100.00;102811.25;6080657;19;20007;-70
2024/02/01 04:56:15;;;;;;;6.93;2.00;;;;;;;4.40;100.00;102812.13;6085374;19;20377;-68
2024/02/01 04:58:22;;;;;;;8.70;2.33;;;;;;;4.30;100.00;102809.34;6086832;19;20387;-68
2024/02/01 05:00:28;;;;;;;6.95;2.08;;;;;;;4.16;100.00;102809.06;6085495;19;20013;-68
2024/02/01 05:02:33;;;;;;;9.95;2.80;;;;;;;4.09;100.00;102802.91;6085514;19;20015;-68
2024/02/01 05:04:38;;;;;;;5.22;1.90;;;;;;;4.04;100.00;102809.72;6087397;19;20010;-69
2024/02/01 05:06:44;;;;;;;10.90;2.40;;;;;;;4.00;100.00;102823.53;6086056;19;20027;-68
2024/02/01 05:08:49;;;;;;;5.20;1.85;;;;;;;4.01;100.00;102824.44;6087458;19;20007;-68
2024/02/01 05:10:57;;;;;;;8.82;2.85;;;;;;;3.93;100.00;102819.94;6086665;19;19998;-68
2024/02/01 05:13:02;;;;;;;8.93;2.15;;;;;;;3.98;100.00;102830.44;6087973;19;20015;-68
2024/02/01 05:15:07;;;;;;;7.05;2.33;;;;;;;4.01;100.00;102834.84;6085847;19;20015;-68
2024/02/01 05:17:12;;;;;;;13.55;2.85;;;;;;;3.99;100.00;102845.19;6086925;19;20059;-68
2024/02/01 05:19:18;;;;;;;7.20;2.03;;;;;;;3.99;100.00;102833.91;6087285;19;20672;-68
2024/02/01 05:21:23;;;;;;;9.27;2.50;;;;;;;3.92;100.00;102836.41;6086071;19;20054;-68
2024/02/01 05:23:28;;;;;;;11.18;2.75;;;;;;;3.95;100.00;102833.88;6088507;19;20019;-68
2024/02/01 05:25:33;;;;;;;10.18;2.90;;;;;;;4.04;100.00;102840.94;6089783;19;20035;-68
2024/02/01 05:27:40;;;;;;;12.98;3.00;;;;;;;4.08;100.00;102842.78;6090056;19;20015;-68
2024/02/01 05:29:49;;;;;;;8.00;2.92;;;;;;;3.98;100.00;102846.06;6084046;19;19998;-68
2024/02/01 05:31:53;;;;;;;12.75;2.97;;;;;;;4.06;100.00;102848.81;6087194;19;20539;-68
2024/02/01 05:33:58;;;;;;;9.35;2.60;;;;;;;3.97;100.00;102852.94;6089374;19;20355;-69
2024/02/01 05:36:06;;;;;;;13.95;2.85;;;;;;;4.12;100.00;102861.91;6086056;19;20018;-68
2024/02/01 05:38:11;;;;;;;9.05;2.20;;;;;;;4.07;100.00;102867.03;6088647;19;20129;-68
2024/02/01 05:40:16;;;;;;;8.57;2.38;;;;;;;4.08;100.00;102878.31;6086240;19;20055;-70
2024/02/01 05:42:21;;;;;;;17.77;3.13;;;;;;;4.29;100.00;102877.81;6085555;19;20350;-68
2024/02/01 05:44:30;;;;;;;10.73;3.60;;;;;;;4.22;100.00;102878.59;6085177;19;20468;-70
2024/02/01 05:46:32;;;;;;;14.32;3.33;;;;;;;4.16;100.00;102889.72;6088175;19;20475;-70
2024/02/01 05:48:37;;;;;;;15.95;3.42;;;;;;;4.09;100.00;102886.16;6087099;19;20126;-70
2024/02/01 05:50:43;;;;;;;10.75;2.30;;;;;;;4.08;100.00;102894.81;6086289;19;20007;-68
2024/02/01 05:52:45;;;;;;;8.43;2.50;;;;;;;4.15;100.00;102891.47;6085571;19;20358;-68
2024/02/01 05:54:50;;;;;;;7.72;2.92;;;;;;;4.21;100.00;102890.69;6085142;19;20011;-70
2024/02/01 05:56:56;;;;;;;14.93;2.90;;;;;;;4.21;100.00;102901.09;6086554;19;20468;-70
2024/02/01 05:58:58;;;;;;;10.20;2.53;;;;;;;4.20;100.00;102901.09;6088062;19;20042;-68
2024/02/01 06:01:08;;;;;;;10.50;3.10;;;;;;;4.30;100.00;102905.63;6085351;19;20113;-68
2024/02/01 06:03:13;;;;;;;13.60;2.80;;;;;;;4.21;100.00;102910.63;6085394;19;20006;-69
2024/02/01 06:05:22;;;;;;;16.00;3.60;;;;;;;4.23;100.00;102909.81;6084820;19;20007;-68
2024/02/01 06:07:27;;;;;;;9.18;2.53;;;;;;;4.18;100.00;102901.91;6086888;19;20528;-69
2024/02/01 06:09:33;;;;;;;14.15;3.38;;;;;;;4.09;100.00;102895.69;6088854;19;20014;-69
2024/02/01 06:11:38;;;;;;;12.38;2.70;;;;;;;4.09;100.00;102900.88;6084597;19;20018;-71
2024/02/01 06:13:44;;;;;;;13.55;2.42;;;;;;;3.97;100.00;102902.38;6088349;19;20018;-69
2024/02/01 06:15:53;;;;;;;8.25;2.67;;;;;;;3.90;100.00;102910.94;6083392;19;20017;-69
2024/02/01 06:18:00;;;;;;;8.80;3.15;;;;;;;3.78;100.00;102917.59;6085084;19;20002;-69
2024/02/01 06:20:06;;;;;;;12.55;3.35;;;;;;;3.69;100.00;102928.69;6085173;19;20015;-69
2024/02/01 06:22:09;;;;;;;16.75;3.13;;;;;;;3.62;100.00;102929.38;6086450;19;20040;-69
2024/02/01 06:24:14;;;;;;;9.93;2.92;;;;;;;3.64;100.00;102943.31;6086858;19;20027;-70
2024/02/01 06:26:25;;;;;;;10.45;3.22;;;;;;;3.49;100.00;102939.50;6084999;19;20047;-69
2024/02/01 06:28:28;;;;;;;7.78;1.85;;;;;;;3.46;100.00;102948.97;6086051;19;20014;-69
2024/02/01 06:30:35;;;;;;;9.80;2.97;;;;;;;3.38;100.00;102946.19;6084663;19;20011;-68
2024/02/01 06:32:40;;;;;;;7.72;3.35;;;;;;;3.35;100.00;102945.25;6084533;19;20322;-68
2024/02/01 06:34:53;;;;;;;5.35;2.13;;;;;;;3.27;100.00;102948.53;6082076;19;20019;-68
2024/02/01 06:37:01;;;;;;;9.50;2.65;;;;;;;3.24;100.00;102947.59;6085022;19;20010;-68
2024/02/01 06:39:16;;;;;;;9.90;3.05;;;;;;;3.21;100.00;102947.50;6086068;19;20018;-68
2024/02/01 06:41:28;;;;;;;14.40;4.68;;;;;;;3.19;100.00;102957.88;6084325;19;20090;-68
2024/02/01 06:43:51;;;;;;;10.43;3.00;;;;;;;3.08;100.00;102959.31;6082395;19;19999;-68
2024/02/01 06:46:01;;;;;;;13.98;2.70;;;;;;;3.02;100.00;102959.16;6084563;19;20002;-70
2024/02/01 06:48:10;;;;;;;8.75;3.22;;;;;;;2.98;100.00;102966.03;5988243;19;2004758;-68
2024/02/01 06:50:34;;;;;;;17.00;3.70;;;;;;;3.02;100.00;102964.38;6083066;19;20436;-68
2024/02/01 06:52:49;;;;;;;15.35;3.50;;;;;;;3.18;100.00;102978.59;6084580;19;20032;-70
2024/02/01 06:54:55;;;;;;;9.50;2.20;;;;;;;3.14;100.00;102976.78;6087438;19;20015;-70
2024/02/01 06:57:13;;;;;;;5.72;2.28;;;;;;;3.17;100.00;102977.72;6085031;19;20007;-69
2024/02/01 06:59:30;;;;;;;13.23;2.85;;;;;;;3.15;100.00;102978.53;6086928;19;20009;-69
2024/02/01 07:01:51;;;;;;;7.57;2.42;;;;;;;3.10;100.00;102995.72;6082519;19;20389;-68
2024/02/01 07:04:07;;;;;;;6.85;2.50;;;;;;;3.01;100.00;103002.44;6082536;19;20459;-68
2024/02/01 07:06:33;;;;;;;10.35;2.60;;;;;;;3.08;100.00;103009.56;6082433;19;20007;-68
2024/02/01 07:08:45;;;;;;;5.38;1.90;;;;;;;3.06;100.00;103007.78;6084564;19;20118;-69
2024/02/01 07:10:58;;;;;;;10.50;2.42;;;;;;;3.09;100.00;103010.44;6083947;19;22932;-68
2024/02/01 07:13:07;;;;;;;10.82;3.00;;;;;;;3.12;100.00;103020.03;6082603;19;20463;-71
2024/02/01 07:15:30;;;;;;;8.30;2.20;;;;;;;3.05;100.00;103016.38;6083292;19;20010;-68
2024/02/01 07:17:43;;;;;;;8.93;3.13;;;;;;;3.03;100.00;103010.28;6084151;19;20003;-68
2024/02/01 07:19:56;;;;;;;20.45;3.45;;;;;;;3.16;100.00;103011.47;6084389;19;20726;-68
2024/02/01 07:22:06;;;;;;;6.47;2.00;;;;;;;3.10;100.00;103019.97;6081365;19;20464;-69
2024/02/01 07:24:27;;;;;;;9.85;4.03;;;;;;;3.08;100.00;103025.16;6085665;19;20035;-69
2024/02/01 07:26:43;;;;;;;16.00;5.05;;;;;;;3.22;100.00;103015.09;5982365;19;2004640;-68
2024/02/01 07:58:53;;;;;;;12.30;2.92;;;;;;;4.23;100.00;103080.72;6082581;19;20024;-70
2024/02/01 08:01:01;;;;;;;13.35;3.20;;;;;;;4.12;100.00;103068.34;6085369;19;20007;-69
2024/02/01 08:07:49;;;;;;;7.38;2.58;;;;;;;4.09;100.00;103085.63;6083377;19;20074;-68
2024/02/01 08:09:57;;;;;;;8.77;2.67;;;;;;;4.26;100.00;103092.06;6082873;19;20034;-68
2024/02/01 08:12:06;;;;;;;13.40;3.15;;;;;;;4.31;100.00;103095.63;6084469;19;20014;-70
2024/02/01 08:14:11;;;;;;;11.98;2.67;;;;;;;4.38;100.00;103097.53;6081874;19;20015;-69
2024/02/01 08:16:18;;;;;;;17.73;3.95;;;;;;;4.40;100.00;103100.19;6082141;19;20006;-69
2024/02/01 08:18:23;;;;;;;7.60;2.30;;;;;;;4.31;100.00;103093.03;6078708;19;20007;-70
2024/02/01 08:20:34;;;;;;;14.32;4.28;;;;;;;4.35;100.00;103094.88;6084880;19;20003;-69
2024/02/01 08:22:41;;;;;;;18.38;3.85;;;;;;;4.46;100.00;103100.31;6080885;19;20003;-69
2024/02/01 08:24:54;;;;;;;6.15;1.95;;;;;;;4.53;100.00;103090.88;6078199;19;20023;-70
2024/02/01 08:27:14;;;;;;;16.80;4.03;;;;;;;4.54;100.00;103097.88;6080544;19;20016;-69
2024/02/01 08:29:24;;;;;;;18.48;3.90;;;;;;;4.52;100.00;103096.94;6079875;19;20014;-72
2024/02/01 08:31:36;;;;;;;8.73;2.42;;;;;;;4.52;100.00;103099.56;6083663;19;20013;-70
2024/02/01 08:33:45;;;;;;;16.27;3.75;;;;;;;4.51;100.00;103103.00;6082404;19;20039;-69
2024/02/01 08:35:51;;;;;;;18.05;3.30;;;;;;;4.61;100.00;103111.03;6082802;19;20363;-69
2024/02/01 08:37:55;;;;;;;14.20;3.25;;;;;;;4.70;100.00;103112.06;6082821;19;20018;-68
2024/02/01 08:40:02;;;;;;;12.18;3.35;;;;;;;4.86;100.00;103127.16;6081349;19;20456;-70
2024/02/01 08:42:09;;;;;;;14.65;3.55;;;;;;;4.90;100.00;103128.09;6081969;19;20007;-70
2024/02/01 08:44:16;;;;;;;13.90;3.60;;;;;;;4.86;100.00;103142.78;6079539;19;20018;-69
2024/02/01 08:46:22;;;;;;;18.13;3.60;;;;;;;4.91;100.00;103150.72;6079929;19;20007;-70
2024/02/01 08:48:24;;;;;;;10.13;3.55;;;;;;;4.93;100.00;103151.63;6079563;19;20015;-69
2024/02/01 08:50:31;;;;;;;18.90;4.57;;;;;;;5.11;100.00;103149.38;6080927;19;20022;-69
2024/02/01 08:52:33;;;;;;;17.52;3.55;;;;;;;5.23;100.00;103160.03;6081362;19;20031;-70
2024/02/01 08:54:38;;;;;;;;;;;;;;;5.37;100.00;103156.78;6081226;19;20006;-70
2024/02/01 08:56:46;;;;;;;15.60;3.05;;;;;;;5.35;100.00;103156.78;6087411;19;19915;-69
2024/02/01 08:58:56;;;;;;;20.10;3.35;;;;;;;5.48;100.00;103160.50;6077237;19;20015;-69
2024/02/01 09:01:01;;;;;;;27.75;4.10;;;;;;;5.48;100.00;103166.59;6082249;19;20664;-70
2024/02/01 09:03:08;;;;;;;15.63;3.75;;;;;;;5.52;100.00;103159.69;6082776;19;20003;-70
2024/02/01 09:05:19;;;;;;;13.88;3.47;;;;;;;5.57;100.00;103162.38;6081150;19;20319;-70
2024/02/01 09:07:26;;;;;;;13.68;3.40;;;;;;;5.57;100.00;103167.59;6086350;19;20053;-70
2024/02/01 09:09:34;;;;;;;9.75;2.88;;;;;;;5.66;100.00;103165.13;6088607;19;20003;-69
2024/02/01 09:11:39;;;;;;;16.73;2.90;;;;;;;5.74;100.00;103166.16;6088007;19;20427;-69
2024/02/01 09:13:46;;;;;;;15.18;4.05;;;;;;;5.82;100.00;103177.59;6087392;19;20426;-70
2024/02/01 09:15:54;;;;;;;19.13;3.78;;;;;;;5.89;100.00;103181.19;6086866;19;20306;-69
2024/02/01 09:18:01;;;;;;;10.60;3.10;;;;;;;5.90;100.00;103180.34;6087710;19;20013;-69
2024/02/01 09:20:17;;;;;;;7.43;2.85;;;;;;;5.91;100.00;103172.53;6084079;19;20006;-69
2024/02/01 09:22:22;;;;;;;17.80;4.07;;;;;;;5.98;100.00;103185.69;6086444;19;20035;-70
2024/02/01 09:24:27;;;;;;;13.70;3.88;;;;;;;5.99;100.00;103190.97;6087865;19;20471;-70
2024/02/01 09:26:32;;;;;;;12.10;3.25;;;;;;;6.03;100.00;103195.38;6084485;19;20017;-70
2024/02/01 09:28:40;;;;;;;13.63;2.92;;;;;;;6.04;100.00;103198.88;6088572;19;20462;-70
2024/02/01 09:30:51;;;;;;;12.90;3.55;;;;;;;6.06;100.00;103200.66;6088089;19;20014;-69
2024/02/01 09:32:59;;;;;;;14.23;3.10;;;;;;;6.09;100.00;103198.09;6088367;19;20046;-69
2024/02/01 09:35:03;;;;;;;18.60;3.70;;;;;;;6.20;100.00;103205.22;6081517;19;20002;-70
2024/02/01 09:37:08;;;;;;;15.48;4.50;;;;;;;6.28;100.00;103198.38;6085439;19;20007;-69
2024/02/01 09:39:16;;;;;;;17.77;3.10;;;;;;;6.34;100.00;103194.09;6085267;19;20086;-69
2024/02/01 09:41:21;;;;;;;19.50;3.35;;;;;;;6.39;100.00;103199.41;6084265;19;20490;-70
2024/02/01 09:43:28;;;;;;;9.95;2.70;;;;;;;6.41;100.00;103204.66;6085735;19;20035;-70
2024/02/01 09:45:36;;;;;;;15.90;3.30;;;;;;;6.49;100.00;103211.75;6086928;19;20511;-69
2024/02/01 09:47:47;;;;;;;21.23;4.40;;;;;;;6.58;100.00;103219.72;6086240;19;20021;-70
2024/02/01 09:49:56;;;;;;;12.45;2.53;;;;;;;6.60;100.00;103212.78;6088026;19;20468;-70
2024/02/01 09:52:01;;;;;;;15.43;3.33;;;;;;;6.61;100.00;103216.28;6087737;19;20362;-70
2024/02/01 09:54:11;;;;;;;12.13;3.22;;;;;;;6.67;100.00;103225.94;6085077;19;20475;-70
2024/02/01 09:56:25;;;;;;;24.25;3.38;;;;;;;6.75;100.00;103227.78;6085584;19;20377;-69
2024/02/01 09:58:32;;;;;;;21.67;3.75;;;;;;;6.79;100.00;103219.16;6084783;19;20002;-70
2024/02/01 10:00:35;;;;;;;19.52;4.88;;;;;;;6.84;100.00;103220.94;6083997;19;20230;-69
2024/02/01 10:02:40;;;;;;;14.43;3.60;;;;;;;6.86;100.00;103229.69;6085806;19;20007;-69
2024/02/01 10:04:45;;;;;;;19.02;4.18;;;;;;;6.90;100.00;103231.47;6086698;19;20512;-69
2024/02/01 10:06:53;;;;;;;14.63;3.35;;;;;;;6.91;100.00;103226.25;6086714;19;20543;-69
2024/02/01 10:09:14;;;;;;;13.85;4.03;;;;;;;6.98;100.00;103224.63;6087445;19;20007;-70
2024/02/01 10:11:23;;;;;;;10.85;2.92;;;;;;;7.08;100.00;103236.06;5983245;19;2005404;-69
2024/02/01 10:13:30;;;;;;;15.10;4.30;;;;;;;6.96;100.00;103240.28;6087386;19;20018;-69
2024/02/01 10:15:38;;;;;;;13.85;3.28;;;;;;;7.05;100.00;103244.72;6086709;19;20051;-70
2024/02/01 10:17:49;;;;;;;13.32;3.00;;;;;;;7.20;100.00;103236.22;6086278;19;20019;-69
2024/02/01 10:19:54;;;;;;;15.80;3.88;;;;;;;7.33;100.00;103238.09;6085708;19;20011;-70